sensor_id;sensor_type;location;lat;lon;timestamp;P1;durP1;ratioP1;P2;durP2;ratioP2
4674;SDS011;2351;50.812;12.872;2022-12-17T00:00:46;58.90;;;25.70;;
4674;SDS011;2351;50.812;12.872;2022-12-17T00:03:35;71.15;;;26.25;;
4674;SDS011;2351;50.812;12.872;2022-12-17T00:06:25;77.45;;;27.35;;
4674;SDS011;2351;50.812;12.872;2022-12-17T00:09:14;87.25;;;28.75;;
4674;SDS011;2351;50.812;12.872;2022-12-17T00:12:03;85.65;;;30.00;;
4674;SDS011;2351;50.812;12.872;2022-12-17T00:14:54;102.03;;;31.50;;
4674;SDS011;2351;50.812;12.872;2022-12-17T00:17:43;86.32;;;26.73;;
4674;SDS011;2351;50.812;12.872;2022-12-17T00:20:32;78.78;;;27.17;;
4674;SDS011;2351;50.812;12.872;2022-12-17T00:23:22;73.93;;;27.38;;
4674;SDS011;2351;50.812;12.872;2022-12-17T00:26:13;68.55;;;25.88;;
4674;SDS011;2351;50.812;12.872;2022-12-17T00:29:11;84.40;;;28.67;;
4674;SDS011;2351;50.812;12.872;2022-12-17T00:32:01;60.65;;;25.10;;
4674;SDS011;2351;50.812;12.872;2022-12-17T00:34:51;80.47;;;29.15;;
4674;SDS011;2351;50.812;12.872;2022-12-17T00:37:40;71.95;;;28.30;;
4674;SDS011;2351;50.812;12.872;2022-12-17T00:40:29;82.97;;;27.08;;
4674;SDS011;2351;50.812;12.872;2022-12-17T00:43:18;76.55;;;29.38;;
4674;SDS011;2351;50.812;12.872;2022-12-17T00:46:07;66.82;;;25.88;;
4674;SDS011;2351;50.812;12.872;2022-12-17T00:48:58;77.45;;;27.27;;
4674;SDS011;2351;50.812;12.872;2022-12-17T00:51:47;110.82;;;30.92;;
4674;SDS011;2351;50.812;12.872;2022-12-17T00:54:37;67.43;;;23.58;;
4674;SDS011;2351;50.812;12.872;2022-12-17T00:57:26;73.93;;;28.83;;
4674;SDS011;2351;50.812;12.872;2022-12-17T01:00:15;83.50;;;28.73;;
4674;SDS011;2351;50.812;12.872;2022-12-17T01:03:05;106.80;;;25.95;;
4674;SDS011;2351;50.812;12.872;2022-12-17T01:05:56;82.95;;;28.35;;
4674;SDS011;2351;50.812;12.872;2022-12-17T01:08:49;81.78;;;28.67;;
4674;SDS011;2351;50.812;12.872;2022-12-17T01:11:38;100.03;;;31.80;;
4674;SDS011;2351;50.812;12.872;2022-12-17T01:14:27;90.38;;;27.83;;
4674;SDS011;2351;50.812;12.872;2022-12-17T01:17:16;79.57;;;28.65;;
4674;SDS011;2351;50.812;12.872;2022-12-17T01:20:06;71.93;;;26.85;;
4674;SDS011;2351;50.812;12.872;2022-12-17T01:22:57;82.22;;;28.95;;
4674;SDS011;2351;50.812;12.872;2022-12-17T01:25:51;72.65;;;26.55;;
4674;SDS011;2351;50.812;12.872;2022-12-17T01:28:40;79.70;;;25.08;;
4674;SDS011;2351;50.812;12.872;2022-12-17T01:31:30;84.07;;;26.88;;
4674;SDS011;2351;50.812;12.872;2022-12-17T01:34:19;88.55;;;29.55;;
4674;SDS011;2351;50.812;12.872;2022-12-17T01:37:08;87.88;;;28.17;;
4674;SDS011;2351;50.812;12.872;2022-12-17T01:39:59;66.28;;;28.85;;
4674;SDS011;2351;50.812;12.872;2022-12-17T01:42:48;78.72;;;29.17;;
4674;SDS011;2351;50.812;12.872;2022-12-17T01:45:38;103.82;;;29.63;;
4674;SDS011;2351;50.812;12.872;2022-12-17T01:48:41;71.10;;;30.48;;
4674;SDS011;2351;50.812;12.872;2022-12-17T01:51:32;83.47;;;29.70;;
4674;SDS011;2351;50.812;12.872;2022-12-17T01:54:23;91.45;;;27.30;;
4674;SDS011;2351;50.812;12.872;2022-12-17T01:57:13;71.30;;;25.95;;
4674;SDS011;2351;50.812;12.872;2022-12-17T02:00:04;80.07;;;27.48;;
4674;SDS011;2351;50.812;12.872;2022-12-17T02:02:56;68.50;;;28.98;;
4674;SDS011;2351;50.812;12.872;2022-12-17T02:05:55;83.00;;;28.15;;
4674;SDS011;2351;50.812;12.872;2022-12-17T02:08:53;76.18;;;28.00;;
4674;SDS011;2351;50.812;12.872;2022-12-17T02:11:50;55.55;;;25.05;;
4674;SDS011;2351;50.812;12.872;2022-12-17T02:14:50;76.00;;;26.77;;
4674;SDS011;2351;50.812;12.872;2022-12-17T02:17:47;79.70;;;28.55;;
4674;SDS011;2351;50.812;12.872;2022-12-17T02:20:55;72.65;;;26.88;;
4674;SDS011;2351;50.812;12.872;2022-12-17T02:23:47;71.18;;;25.80;;
4674;SDS011;2351;50.812;12.872;2022-12-17T02:26:46;66.85;;;28.45;;
4674;SDS011;2351;50.812;12.872;2022-12-17T02:29:37;59.92;;;26.52;;
4674;SDS011;2351;50.812;12.872;2022-12-17T02:32:30;74.95;;;26.95;;
4674;SDS011;2351;50.812;12.872;2022-12-17T02:35:23;72.57;;;24.80;;
4674;SDS011;2351;50.812;12.872;2022-12-17T02:38:16;57.97;;;22.80;;
4674;SDS011;2351;50.812;12.872;2022-12-17T02:41:12;59.30;;;25.27;;
4674;SDS011;2351;50.812;12.872;2022-12-17T02:44:07;73.63;;;26.02;;
4674;SDS011;2351;50.812;12.872;2022-12-17T02:46:58;78.32;;;23.60;;
4674;SDS011;2351;50.812;12.872;2022-12-17T02:49:50;68.10;;;24.95;;
4674;SDS011;2351;50.812;12.872;2022-12-17T02:52:44;62.45;;;25.02;;
4674;SDS011;2351;50.812;12.872;2022-12-17T02:55:35;56.20;;;24.02;;
4674;SDS011;2351;50.812;12.872;2022-12-17T02:58:24;58.72;;;26.38;;
4674;SDS011;2351;50.812;12.872;2022-12-17T03:01:14;58.70;;;24.67;;
4674;SDS011;2351;50.812;12.872;2022-12-17T03:04:04;59.85;;;24.73;;
4674;SDS011;2351;50.812;12.872;2022-12-17T03:06:53;60.05;;;26.98;;
4674;SDS011;2351;50.812;12.872;2022-12-17T03:09:42;60.05;;;26.42;;
4674;SDS011;2351;50.812;12.872;2022-12-17T03:12:31;69.60;;;25.27;;
4674;SDS011;2351;50.812;12.872;2022-12-17T03:15:20;65.82;;;26.02;;
4674;SDS011;2351;50.812;12.872;2022-12-17T03:18:11;61.05;;;24.90;;
4674;SDS011;2351;50.812;12.872;2022-12-17T03:21:01;80.28;;;27.67;;
4674;SDS011;2351;50.812;12.872;2022-12-17T03:23:50;62.22;;;24.17;;
4674;SDS011;2351;50.812;12.872;2022-12-17T03:26:39;69.90;;;24.73;;
4674;SDS011;2351;50.812;12.872;2022-12-17T03:29:29;64.25;;;23.92;;
4674;SDS011;2351;50.812;12.872;2022-12-17T03:32:18;69.95;;;27.63;;
4674;SDS011;2351;50.812;12.872;2022-12-17T03:35:08;62.08;;;25.83;;
4674;SDS011;2351;50.812;12.872;2022-12-17T03:37:58;60.33;;;25.52;;
4674;SDS011;2351;50.812;12.872;2022-12-17T03:40:48;68.20;;;27.67;;
4674;SDS011;2351;50.812;12.872;2022-12-17T03:43:38;58.40;;;24.08;;
4674;SDS011;2351;50.812;12.872;2022-12-17T03:46:28;61.20;;;24.10;;
4674;SDS011;2351;50.812;12.872;2022-12-17T03:49:17;65.05;;;25.98;;
4674;SDS011;2351;50.812;12.872;2022-12-17T03:52:07;74.95;;;29.95;;
4674;SDS011;2351;50.812;12.872;2022-12-17T03:54:57;64.75;;;27.63;;
4674;SDS011;2351;50.812;12.872;2022-12-17T03:57:45;64.25;;;26.42;;
4674;SDS011;2351;50.812;12.872;2022-12-17T04:00:35;80.80;;;27.27;;
4674;SDS011;2351;50.812;12.872;2022-12-17T04:03:24;74.22;;;25.45;;
4674;SDS011;2351;50.812;12.872;2022-12-17T04:06:13;78.28;;;30.77;;
4674;SDS011;2351;50.812;12.872;2022-12-17T04:09:04;74.68;;;26.73;;
4674;SDS011;2351;50.812;12.872;2022-12-17T04:11:53;74.55;;;27.05;;
4674;SDS011;2351;50.812;12.872;2022-12-17T04:14:42;75.13;;;28.35;;
4674;SDS011;2351;50.812;12.872;2022-12-17T04:17:31;66.40;;;24.90;;
4674;SDS011;2351;50.812;12.872;2022-12-17T04:20:20;71.80;;;25.17;;
4674;SDS011;2351;50.812;12.872;2022-12-17T04:23:09;67.93;;;24.70;;
4674;SDS011;2351;50.812;12.872;2022-12-17T04:26:00;62.30;;;24.23;;
4674;SDS011;2351;50.812;12.872;2022-12-17T04:28:49;74.00;;;24.60;;
4674;SDS011;2351;50.812;12.872;2022-12-17T04:31:38;69.65;;;24.88;;
4674;SDS011;2351;50.812;12.872;2022-12-17T04:34:28;66.57;;;23.45;;
4674;SDS011;2351;50.812;12.872;2022-12-17T04:37:17;72.45;;;22.60;;
4674;SDS011;2351;50.812;12.872;2022-12-17T04:40:07;61.72;;;24.55;;
4674;SDS011;2351;50.812;12.872;2022-12-17T04:43:05;76.80;;;25.83;;
4674;SDS011;2351;50.812;12.872;2022-12-17T04:45:54;73.15;;;26.73;;
4674;SDS011;2351;50.812;12.872;2022-12-17T04:48:43;68.82;;;25.20;;
4674;SDS011;2351;50.812;12.872;2022-12-17T04:51:33;95.22;;;28.35;;
4674;SDS011;2351;50.812;12.872;2022-12-17T04:54:22;62.70;;;25.27;;
4674;SDS011;2351;50.812;12.872;2022-12-17T04:57:11;88.05;;;23.58;;
4674;SDS011;2351;50.812;12.872;2022-12-17T05:00:02;69.65;;;26.40;;
4674;SDS011;2351;50.812;12.872;2022-12-17T05:02:52;70.20;;;25.20;;
4674;SDS011;2351;50.812;12.872;2022-12-17T05:05:41;81.07;;;26.10;;
4674;SDS011;2351;50.812;12.872;2022-12-17T05:08:30;78.45;;;24.85;;
4674;SDS011;2351;50.812;12.872;2022-12-17T05:11:19;77.00;;;26.08;;
4674;SDS011;2351;50.812;12.872;2022-12-17T05:14:08;81.53;;;26.30;;
4674;SDS011;2351;50.812;12.872;2022-12-17T05:16:59;77.63;;;26.45;;
4674;SDS011;2351;50.812;12.872;2022-12-17T05:19:48;79.95;;;26.73;;
4674;SDS011;2351;50.812;12.872;2022-12-17T05:22:37;82.60;;;25.30;;
4674;SDS011;2351;50.812;12.872;2022-12-17T05:25:26;73.63;;;25.95;;
4674;SDS011;2351;50.812;12.872;2022-12-17T05:28:16;75.97;;;25.38;;
4674;SDS011;2351;50.812;12.872;2022-12-17T05:31:05;76.47;;;27.50;;
4674;SDS011;2351;50.812;12.872;2022-12-17T05:33:55;79.63;;;29.35;;
4674;SDS011;2351;50.812;12.872;2022-12-17T05:36:44;86.32;;;28.48;;
4674;SDS011;2351;50.812;12.872;2022-12-17T05:39:34;91.20;;;26.25;;
4674;SDS011;2351;50.812;12.872;2022-12-17T05:42:23;79.18;;;28.13;;
4674;SDS011;2351;50.812;12.872;2022-12-17T05:45:12;75.45;;;28.77;;
4674;SDS011;2351;50.812;12.872;2022-12-17T05:48:01;87.00;;;31.20;;
4674;SDS011;2351;50.812;12.872;2022-12-17T05:50:52;71.15;;;25.40;;
4674;SDS011;2351;50.812;12.872;2022-12-17T05:53:38;86.00;;;28.88;;
4674;SDS011;2351;50.812;12.872;2022-12-17T05:56:27;87.68;;;30.02;;
4674;SDS011;2351;50.812;12.872;2022-12-17T05:59:16;86.78;;;27.08;;
4674;SDS011;2351;50.812;12.872;2022-12-17T06:02:05;77.72;;;23.98;;
4674;SDS011;2351;50.812;12.872;2022-12-17T06:04:54;81.88;;;28.77;;
4674;SDS011;2351;50.812;12.872;2022-12-17T06:07:44;74.22;;;29.27;;
4674;SDS011;2351;50.812;12.872;2022-12-17T06:10:34;77.65;;;26.30;;
4674;SDS011;2351;50.812;12.872;2022-12-17T06:13:35;88.60;;;27.13;;
4674;SDS011;2351;50.812;12.872;2022-12-17T06:16:24;97.25;;;28.60;;
4674;SDS011;2351;50.812;12.872;2022-12-17T06:19:13;124.68;;;31.25;;
4674;SDS011;2351;50.812;12.872;2022-12-17T06:22:02;105.13;;;29.50;;
4674;SDS011;2351;50.812;12.872;2022-12-17T06:24:53;97.70;;;26.98;;
4674;SDS011;2351;50.812;12.872;2022-12-17T06:27:42;93.53;;;28.10;;
4674;SDS011;2351;50.812;12.872;2022-12-17T06:30:32;93.47;;;27.45;;
4674;SDS011;2351;50.812;12.872;2022-12-17T06:33:21;97.60;;;27.73;;
4674;SDS011;2351;50.812;12.872;2022-12-17T06:36:10;125.57;;;30.95;;
4674;SDS011;2351;50.812;12.872;2022-12-17T06:38:59;115.90;;;29.63;;
4674;SDS011;2351;50.812;12.872;2022-12-17T06:41:50;91.40;;;27.77;;
4674;SDS011;2351;50.812;12.872;2022-12-17T06:44:39;88.60;;;25.83;;
4674;SDS011;2351;50.812;12.872;2022-12-17T06:47:27;101.38;;;29.45;;
4674;SDS011;2351;50.812;12.872;2022-12-17T06:50:16;91.30;;;24.17;;
4674;SDS011;2351;50.812;12.872;2022-12-17T06:53:06;113.68;;;25.25;;
4674;SDS011;2351;50.812;12.872;2022-12-17T06:55:56;106.05;;;29.83;;
4674;SDS011;2351;50.812;12.872;2022-12-17T06:58:47;119.25;;;28.88;;
4674;SDS011;2351;50.812;12.872;2022-12-17T07:01:32;86.80;;;24.10;;
4674;SDS011;2351;50.812;12.872;2022-12-17T07:04:33;83.03;;;23.80;;
4674;SDS011;2351;50.812;12.872;2022-12-17T07:07:22;81.35;;;26.77;;
4674;SDS011;2351;50.812;12.872;2022-12-17T07:10:22;106.47;;;25.05;;
4674;SDS011;2351;50.812;12.872;2022-12-17T07:13:12;99.30;;;27.75;;
4674;SDS011;2351;50.812;12.872;2022-12-17T07:16:02;115.20;;;27.05;;
4674;SDS011;2351;50.812;12.872;2022-12-17T07:18:51;94.10;;;27.50;;
4674;SDS011;2351;50.812;12.872;2022-12-17T07:21:40;115.63;;;30.75;;
4674;SDS011;2351;50.812;12.872;2022-12-17T07:24:38;102.15;;;27.98;;
4674;SDS011;2351;50.812;12.872;2022-12-17T07:27:26;136.07;;;30.80;;
4674;SDS011;2351;50.812;12.872;2022-12-17T07:30:16;117.43;;;26.65;;
4674;SDS011;2351;50.812;12.872;2022-12-17T07:33:07;91.55;;;24.58;;
4674;SDS011;2351;50.812;12.872;2022-12-17T07:35:57;93.18;;;26.65;;
4674;SDS011;2351;50.812;12.872;2022-12-17T07:38:47;108.93;;;29.30;;
4674;SDS011;2351;50.812;12.872;2022-12-17T07:41:36;114.70;;;25.50;;
4674;SDS011;2351;50.812;12.872;2022-12-17T07:44:25;121.80;;;26.92;;
4674;SDS011;2351;50.812;12.872;2022-12-17T07:47:14;97.93;;;26.05;;
4674;SDS011;2351;50.812;12.872;2022-12-17T07:50:05;136.15;;;28.58;;
4674;SDS011;2351;50.812;12.872;2022-12-17T07:52:58;83.00;;;23.63;;
4674;SDS011;2351;50.812;12.872;2022-12-17T07:55:48;99.93;;;26.17;;
4674;SDS011;2351;50.812;12.872;2022-12-17T07:58:37;143.77;;;28.08;;
4674;SDS011;2351;50.812;12.872;2022-12-17T08:01:32;88.38;;;25.45;;
4674;SDS011;2351;50.812;12.872;2022-12-17T08:04:21;95.60;;;27.27;;
4674;SDS011;2351;50.812;12.872;2022-12-17T08:07:26;109.72;;;25.20;;
4674;SDS011;2351;50.812;12.872;2022-12-17T08:10:15;83.70;;;23.00;;
4674;SDS011;2351;50.812;12.872;2022-12-17T08:13:04;101.50;;;26.83;;
4674;SDS011;2351;50.812;12.872;2022-12-17T08:15:53;128.85;;;25.40;;
4674;SDS011;2351;50.812;12.872;2022-12-17T08:18:45;112.35;;;26.00;;
4674;SDS011;2351;50.812;12.872;2022-12-17T08:21:34;121.30;;;25.75;;
4674;SDS011;2351;50.812;12.872;2022-12-17T08:24:39;106.47;;;27.90;;
4674;SDS011;2351;50.812;12.872;2022-12-17T08:27:29;115.88;;;26.00;;
4674;SDS011;2351;50.812;12.872;2022-12-17T08:30:18;94.82;;;25.52;;
4674;SDS011;2351;50.812;12.872;2022-12-17T08:36:18;108.15;;;26.83;;
4674;SDS011;2351;50.812;12.872;2022-12-17T08:39:07;102.57;;;26.08;;
4674;SDS011;2351;50.812;12.872;2022-12-17T08:41:58;100.22;;;26.33;;
4674;SDS011;2351;50.812;12.872;2022-12-17T08:44:47;101.40;;;24.95;;
4674;SDS011;2351;50.812;12.872;2022-12-17T08:47:36;93.32;;;25.23;;
4674;SDS011;2351;50.812;12.872;2022-12-17T08:50:25;105.32;;;24.48;;
4674;SDS011;2351;50.812;12.872;2022-12-17T08:53:14;73.78;;;24.55;;
4674;SDS011;2351;50.812;12.872;2022-12-17T08:56:04;108.53;;;23.77;;
4674;SDS011;2351;50.812;12.872;2022-12-17T08:58:55;87.05;;;20.35;;
4674;SDS011;2351;50.812;12.872;2022-12-17T09:01:44;85.38;;;21.38;;
4674;SDS011;2351;50.812;12.872;2022-12-17T09:04:39;67.07;;;18.13;;
4674;SDS011;2351;50.812;12.872;2022-12-17T09:07:28;67.03;;;18.83;;
4674;SDS011;2351;50.812;12.872;2022-12-17T09:10:17;86.40;;;19.27;;
4674;SDS011;2351;50.812;12.872;2022-12-17T09:13:06;88.10;;;19.70;;
4674;SDS011;2351;50.812;12.872;2022-12-17T09:15:57;55.53;;;19.52;;
4674;SDS011;2351;50.812;12.872;2022-12-17T09:18:46;48.47;;;14.88;;
4674;SDS011;2351;50.812;12.872;2022-12-17T09:21:35;61.13;;;16.17;;
4674;SDS011;2351;50.812;12.872;2022-12-17T09:24:25;70.65;;;18.70;;
4674;SDS011;2351;50.812;12.872;2022-12-17T09:27:14;59.17;;;16.98;;
4674;SDS011;2351;50.812;12.872;2022-12-17T09:30:03;59.22;;;17.85;;
4674;SDS011;2351;50.812;12.872;2022-12-17T09:32:54;51.35;;;16.02;;
4674;SDS011;2351;50.812;12.872;2022-12-17T09:35:43;52.78;;;15.10;;
4674;SDS011;2351;50.812;12.872;2022-12-17T09:38:33;56.30;;;14.75;;
4674;SDS011;2351;50.812;12.872;2022-12-17T09:41:24;48.55;;;14.95;;
4674;SDS011;2351;50.812;12.872;2022-12-17T09:44:17;55.13;;;19.67;;
4674;SDS011;2351;50.812;12.872;2022-12-17T09:47:14;38.53;;;13.50;;
4674;SDS011;2351;50.812;12.872;2022-12-17T09:50:12;55.90;;;14.35;;
4674;SDS011;2351;50.812;12.872;2022-12-17T09:53:08;44.13;;;13.52;;
4674;SDS011;2351;50.812;12.872;2022-12-17T09:56:08;63.83;;;16.10;;
4674;SDS011;2351;50.812;12.872;2022-12-17T09:59:05;57.95;;;17.65;;
4674;SDS011;2351;50.812;12.872;2022-12-17T10:01:56;49.45;;;17.25;;
4674;SDS011;2351;50.812;12.872;2022-12-17T10:04:46;54.72;;;13.73;;
4674;SDS011;2351;50.812;12.872;2022-12-17T10:07:37;55.55;;;16.05;;
4674;SDS011;2351;50.812;12.872;2022-12-17T10:10:29;51.50;;;15.93;;
4674;SDS011;2351;50.812;12.872;2022-12-17T10:13:20;56.17;;;14.82;;
4674;SDS011;2351;50.812;12.872;2022-12-17T10:16:20;69.35;;;16.25;;
4674;SDS011;2351;50.812;12.872;2022-12-17T10:19:14;42.53;;;15.55;;
4674;SDS011;2351;50.812;12.872;2022-12-17T10:22:08;58.22;;;19.52;;
4674;SDS011;2351;50.812;12.872;2022-12-17T10:25:02;61.87;;;17.07;;
4674;SDS011;2351;50.812;12.872;2022-12-17T10:27:53;70.40;;;20.73;;
4674;SDS011;2351;50.812;12.872;2022-12-17T10:30:42;51.35;;;17.75;;
4674;SDS011;2351;50.812;12.872;2022-12-17T10:33:35;34.00;;;13.80;;
4674;SDS011;2351;50.812;12.872;2022-12-17T10:36:25;58.43;;;16.10;;
4674;SDS011;2351;50.812;12.872;2022-12-17T10:39:17;58.53;;;17.77;;
4674;SDS011;2351;50.812;12.872;2022-12-17T10:42:19;50.70;;;16.80;;
4674;SDS011;2351;50.812;12.872;2022-12-17T10:48:18;43.47;;;13.40;;
4674;SDS011;2351;50.812;12.872;2022-12-17T10:51:17;61.93;;;15.07;;
4674;SDS011;2351;50.812;12.872;2022-12-17T10:54:09;41.17;;;15.63;;
4674;SDS011;2351;50.812;12.872;2022-12-17T10:57:16;37.22;;;12.27;;
4674;SDS011;2351;50.812;12.872;2022-12-17T11:00:21;44.07;;;16.07;;
4674;SDS011;2351;50.812;12.872;2022-12-17T11:03:21;41.80;;;15.67;;
4674;SDS011;2351;50.812;12.872;2022-12-17T11:06:13;29.50;;;12.90;;
4674;SDS011;2351;50.812;12.872;2022-12-17T11:09:07;28.48;;;11.10;;
4674;SDS011;2351;50.812;12.872;2022-12-17T11:12:06;38.67;;;13.00;;
4674;SDS011;2351;50.812;12.872;2022-12-17T11:15:03;33.80;;;12.17;;
4674;SDS011;2351;50.812;12.872;2022-12-17T11:18:03;27.73;;;12.50;;
4674;SDS011;2351;50.812;12.872;2022-12-17T11:20:55;33.23;;;13.07;;
4674;SDS011;2351;50.812;12.872;2022-12-17T11:23:52;16.60;;;9.57;;
4674;SDS011;2351;50.812;12.872;2022-12-17T11:26:43;28.85;;;10.52;;
4674;SDS011;2351;50.812;12.872;2022-12-17T11:29:35;30.90;;;11.90;;
4674;SDS011;2351;50.812;12.872;2022-12-17T11:32:29;28.40;;;11.50;;
4674;SDS011;2351;50.812;12.872;2022-12-17T11:35:31;29.83;;;12.57;;
4674;SDS011;2351;50.812;12.872;2022-12-17T11:38:31;34.40;;;13.53;;
4674;SDS011;2351;50.812;12.872;2022-12-17T11:41:28;35.93;;;14.00;;
4674;SDS011;2351;50.812;12.872;2022-12-17T11:44:26;28.90;;;12.23;;
4674;SDS011;2351;50.812;12.872;2022-12-17T11:47:31;28.87;;;12.27;;
4674;SDS011;2351;50.812;12.872;2022-12-17T11:50:26;33.30;;;11.83;;
4674;SDS011;2351;50.812;12.872;2022-12-17T11:53:28;32.20;;;12.13;;
4674;SDS011;2351;50.812;12.872;2022-12-17T11:56:32;27.93;;;12.33;;
4674;SDS011;2351;50.812;12.872;2022-12-17T11:59:26;25.03;;;11.30;;
4674;SDS011;2351;50.812;12.872;2022-12-17T12:02:21;26.37;;;11.73;;
4674;SDS011;2351;50.812;12.872;2022-12-17T12:05:28;25.93;;;12.93;;
4674;SDS011;2351;50.812;12.872;2022-12-17T12:08:26;25.98;;;12.25;;
4674;SDS011;2351;50.812;12.872;2022-12-17T12:11:32;27.10;;;10.37;;
4674;SDS011;2351;50.812;12.872;2022-12-17T12:14:29;30.13;;;11.37;;
4674;SDS011;2351;50.812;12.872;2022-12-17T12:17:34;27.95;;;11.93;;
4674;SDS011;2351;50.812;12.872;2022-12-17T12:20:33;27.23;;;12.88;;
4674;SDS011;2351;50.812;12.872;2022-12-17T12:23:36;27.80;;;10.80;;
4674;SDS011;2351;50.812;12.872;2022-12-17T12:26:35;22.83;;;10.90;;
4674;SDS011;2351;50.812;12.872;2022-12-17T12:29:34;28.43;;;11.97;;
4674;SDS011;2351;50.812;12.872;2022-12-17T12:32:36;25.50;;;11.27;;
4674;SDS011;2351;50.812;12.872;2022-12-17T12:35:33;21.80;;;9.13;;
4674;SDS011;2351;50.812;12.872;2022-12-17T12:38:26;19.47;;;8.63;;
4674;SDS011;2351;50.812;12.872;2022-12-17T12:41:27;27.07;;;9.70;;
4674;SDS011;2351;50.812;12.872;2022-12-17T12:44:27;21.50;;;10.20;;
4674;SDS011;2351;50.812;12.872;2022-12-17T12:47:24;18.40;;;9.17;;
4674;SDS011;2351;50.812;12.872;2022-12-17T12:50:21;25.27;;;9.60;;
4674;SDS011;2351;50.812;12.872;2022-12-17T12:53:16;15.93;;;8.70;;
4674;SDS011;2351;50.812;12.872;2022-12-17T12:56:23;22.70;;;10.53;;
4674;SDS011;2351;50.812;12.872;2022-12-17T12:59:20;28.13;;;10.17;;
4674;SDS011;2351;50.812;12.872;2022-12-17T13:02:21;30.13;;;11.30;;
4674;SDS011;2351;50.812;12.872;2022-12-17T13:05:26;21.90;;;8.10;;
4674;SDS011;2351;50.812;12.872;2022-12-17T13:08:14;26.20;;;8.40;;
4674;SDS011;2351;50.812;12.872;2022-12-17T13:10:50;16.73;;;8.03;;
4674;SDS011;2351;50.812;12.872;2022-12-17T13:13:26;17.77;;;9.50;;
4674;SDS011;2351;50.812;12.872;2022-12-17T13:16:15;30.50;;;10.87;;
4674;SDS011;2351;50.812;12.872;2022-12-17T13:19:00;34.77;;;14.53;;
4674;SDS011;2351;50.812;12.872;2022-12-17T13:21:35;32.03;;;13.80;;
4674;SDS011;2351;50.812;12.872;2022-12-17T13:24:09;35.13;;;11.20;;
4674;SDS011;2351;50.812;12.872;2022-12-17T13:26:42;38.80;;;15.07;;
4674;SDS011;2351;50.812;12.872;2022-12-17T13:29:22;22.07;;;9.93;;
4674;SDS011;2351;50.812;12.872;2022-12-17T13:32:02;24.03;;;10.20;;
4674;SDS011;2351;50.812;12.872;2022-12-17T13:34:41;24.93;;;10.60;;
4674;SDS011;2351;50.812;12.872;2022-12-17T13:37:34;17.97;;;7.70;;
4674;SDS011;2351;50.812;12.872;2022-12-17T13:40:20;20.07;;;9.17;;
4674;SDS011;2351;50.812;12.872;2022-12-17T13:43:11;22.70;;;9.93;;
4674;SDS011;2351;50.812;12.872;2022-12-17T13:45:46;21.13;;;11.57;;
4674;SDS011;2351;50.812;12.872;2022-12-17T13:48:25;29.30;;;12.37;;
4674;SDS011;2351;50.812;12.872;2022-12-17T13:50:59;25.33;;;10.60;;
4674;SDS011;2351;50.812;12.872;2022-12-17T13:53:33;27.60;;;13.07;;
4674;SDS011;2351;50.812;12.872;2022-12-17T13:56:06;28.17;;;11.80;;
4674;SDS011;2351;50.812;12.872;2022-12-17T13:58:41;29.23;;;13.23;;
4674;SDS011;2351;50.812;12.872;2022-12-17T14:01:13;24.20;;;10.40;;
4674;SDS011;2351;50.812;12.872;2022-12-17T14:03:48;25.30;;;10.77;;
4674;SDS011;2351;50.812;12.872;2022-12-17T14:06:21;20.50;;;9.60;;
4674;SDS011;2351;50.812;12.872;2022-12-17T14:08:56;30.50;;;11.97;;
4674;SDS011;2351;50.812;12.872;2022-12-17T14:11:29;18.37;;;10.03;;
4674;SDS011;2351;50.812;12.872;2022-12-17T14:14:21;28.00;;;8.77;;
4674;SDS011;2351;50.812;12.872;2022-12-17T14:16:59;18.23;;;10.17;;
4674;SDS011;2351;50.812;12.872;2022-12-17T14:19:31;15.30;;;9.07;;
4674;SDS011;2351;50.812;12.872;2022-12-17T14:22:03;21.27;;;9.77;;
4674;SDS011;2351;50.812;12.872;2022-12-17T14:24:37;15.63;;;8.07;;
4674;SDS011;2351;50.812;12.872;2022-12-17T14:27:17;39.17;;;10.10;;
4674;SDS011;2351;50.812;12.872;2022-12-17T14:29:53;21.30;;;9.77;;
4674;SDS011;2351;50.812;12.872;2022-12-17T14:32:31;20.57;;;9.10;;
4674;SDS011;2351;50.812;12.872;2022-12-17T14:35:04;19.00;;;7.87;;
4674;SDS011;2351;50.812;12.872;2022-12-17T14:37:36;17.80;;;8.70;;
4674;SDS011;2351;50.812;12.872;2022-12-17T14:40:12;21.40;;;8.97;;
4674;SDS011;2351;50.812;12.872;2022-12-17T14:42:45;18.77;;;9.10;;
4674;SDS011;2351;50.812;12.872;2022-12-17T14:45:21;30.00;;;10.57;;
4674;SDS011;2351;50.812;12.872;2022-12-17T14:47:54;17.50;;;8.80;;
4674;SDS011;2351;50.812;12.872;2022-12-17T14:50:30;24.73;;;10.33;;
4674;SDS011;2351;50.812;12.872;2022-12-17T14:55:56;23.85;;;10.23;;
4674;SDS011;2351;50.812;12.872;2022-12-17T14:58:29;22.10;;;9.02;;
4674;SDS011;2351;50.812;12.872;2022-12-17T15:01:03;29.60;;;10.17;;
4674;SDS011;2351;50.812;12.872;2022-12-17T15:03:37;29.23;;;10.00;;
4674;SDS011;2351;50.812;12.872;2022-12-17T15:06:12;19.33;;;10.48;;
4674;SDS011;2351;50.812;12.872;2022-12-17T15:08:48;21.27;;;10.10;;
4674;SDS011;2351;50.812;12.872;2022-12-17T15:11:23;19.67;;;9.90;;
4674;SDS011;2351;50.812;12.872;2022-12-17T15:13:55;28.17;;;11.35;;
4674;SDS011;2351;50.812;12.872;2022-12-17T15:16:27;24.80;;;10.63;;
4674;SDS011;2351;50.812;12.872;2022-12-17T15:18:59;19.90;;;9.60;;
4674;SDS011;2351;50.812;12.872;2022-12-17T15:21:31;20.77;;;9.77;;
4674;SDS011;2351;50.812;12.872;2022-12-17T15:24:03;18.50;;;9.50;;
4674;SDS011;2351;50.812;12.872;2022-12-17T15:26:42;22.52;;;10.43;;
4674;SDS011;2351;50.812;12.872;2022-12-17T15:29:14;22.35;;;9.65;;
4674;SDS011;2351;50.812;12.872;2022-12-17T15:31:46;18.08;;;9.48;;
4674;SDS011;2351;50.812;12.872;2022-12-17T15:34:17;25.85;;;10.27;;
4674;SDS011;2351;50.812;12.872;2022-12-17T15:36:49;28.35;;;11.10;;
4674;SDS011;2351;50.812;12.872;2022-12-17T15:39:21;21.48;;;10.00;;
4674;SDS011;2351;50.812;12.872;2022-12-17T15:41:54;28.27;;;11.48;;
4674;SDS011;2351;50.812;12.872;2022-12-17T15:44:43;25.60;;;11.63;;
4674;SDS011;2351;50.812;12.872;2022-12-17T15:47:15;25.05;;;10.65;;
4674;SDS011;2351;50.812;12.872;2022-12-17T15:49:48;22.63;;;10.05;;
4674;SDS011;2351;50.812;12.872;2022-12-17T15:52:20;28.83;;;11.90;;
4674;SDS011;2351;50.812;12.872;2022-12-17T15:54:52;26.42;;;10.80;;
4674;SDS011;2351;50.812;12.872;2022-12-17T15:57:25;25.65;;;10.95;;
4674;SDS011;2351;50.812;12.872;2022-12-17T15:59:56;25.08;;;11.30;;
4674;SDS011;2351;50.812;12.872;2022-12-17T16:02:28;22.95;;;11.43;;
4674;SDS011;2351;50.812;12.872;2022-12-17T16:05:00;29.27;;;12.52;;
4674;SDS011;2351;50.812;12.872;2022-12-17T16:07:31;28.52;;;13.82;;
4674;SDS011;2351;50.812;12.872;2022-12-17T16:10:03;24.02;;;12.52;;
4674;SDS011;2351;50.812;12.872;2022-12-17T16:12:37;32.58;;;15.00;;
4674;SDS011;2351;50.812;12.872;2022-12-17T16:15:09;27.42;;;12.30;;
4674;SDS011;2351;50.812;12.872;2022-12-17T16:17:42;32.42;;;14.25;;
4674;SDS011;2351;50.812;12.872;2022-12-17T16:20:14;30.50;;;13.98;;
4674;SDS011;2351;50.812;12.872;2022-12-17T16:22:46;37.20;;;14.77;;
4674;SDS011;2351;50.812;12.872;2022-12-17T16:25:18;30.05;;;12.20;;
4674;SDS011;2351;50.812;12.872;2022-12-17T16:27:51;30.50;;;14.05;;
4674;SDS011;2351;50.812;12.872;2022-12-17T16:30:22;31.83;;;12.88;;
4674;SDS011;2351;50.812;12.872;2022-12-17T16:32:56;34.42;;;14.07;;
4674;SDS011;2351;50.812;12.872;2022-12-17T16:35:28;31.63;;;13.90;;
4674;SDS011;2351;50.812;12.872;2022-12-17T16:37:59;30.42;;;12.52;;
4674;SDS011;2351;50.812;12.872;2022-12-17T16:40:31;26.00;;;12.95;;
4674;SDS011;2351;50.812;12.872;2022-12-17T16:43:04;24.73;;;11.35;;
4674;SDS011;2351;50.812;12.872;2022-12-17T16:45:37;34.35;;;12.10;;